Time;durP1;ratioP1;P1;durP2;ratioP2;P2;SDS_P1;SDS_P2;PMS_P1;PMS_P2;Temp;Humidity;BMP_temperature;BMP_pressure;BME280_temperature;BME280_humidity;BME280_pressure;Samples;Min_cycle;Max_cycle;Signal;HPM_P1;HPM_P2
2021/05/26 00:01:51;;;;;;;;;;;20.00;59.40;;;;;;4976254;28;1124;-71
2021/05/26 00:04:17;;;;;;;;;;;20.00;59.40;;;;;;4976161;28;1954;-71
2021/05/26 00:06:42;;;;;;;;;;;20.00;59.40;;;;;;4975274;28;1073;-71
2021/05/26 00:09:07;;;;;;;;;;;20.00;59.40;;;;;;4975195;28;1377;-71
2021/05/26 00:11:33;;;;;;;;;;;20.00;59.40;;;;;;4976408;28;1140;-71
2021/05/26 00:13:58;;;;;;;;;;;20.00;59.40;;;;;;4975356;28;1089;-71
2021/05/26 00:16:25;;;;;;;;;;;20.00;59.40;;;;;;4974449;28;1077;-71
2021/05/26 00:18:51;;;;;;;;;;;20.00;59.50;;;;;;4971358;28;1049;-71
2021/05/26 00:21:17;;;;;;;;;;;20.00;59.40;;;;;;4974215;28;1366;-71
2021/05/26 00:23:43;;;;;;;;;;;20.00;59.50;;;;;;4974440;28;1942;-71
2021/05/26 00:26:08;;;;;;;;;;;20.00;59.50;;;;;;4974680;28;1057;-71
2021/05/26 00:28:33;;;;;;;;;;;20.00;59.50;;;;;;4973581;28;1065;-71
2021/05/26 00:31:00;;;;;;;;;;;20.00;59.50;;;;;;4975210;28;1217;-71
2021/05/26 00:33:25;;;;;;;;;;;20.00;59.50;;;;;;4973943;28;1053;-71
2021/05/26 00:35:53;;;;;;;;;;;20.00;59.50;;;;;;4974562;28;1088;-71
2021/05/26 00:38:20;;;;;;;;;;;20.00;59.50;;;;;;4974702;28;1057;-71
2021/05/26 00:40:46;;;;;;;;;;;20.00;59.50;;;;;;4974842;28;1239;-71
2021/05/26 00:43:11;;;;;;;;;;;20.00;59.50;;;;;;4973679;28;1910;-71
2021/05/26 00:45:37;;;;;;;;;;;20.00;59.50;;;;;;4974229;28;1065;-71
2021/05/26 00:48:02;;;;;;;;;;;20.00;59.60;;;;;;4973530;28;1046;-71
2021/05/26 00:50:29;;;;;;;;;;;20.00;59.60;;;;;;4973039;28;1220;-71
2021/05/26 00:53:01;;;;;;;;;;;20.00;59.60;;;;;;4974953;28;1101;-71
2021/05/26 00:55:26;;;;;;;;;;;20.00;59.60;;;;;;4973968;28;1077;-71
2021/05/26 00:57:52;;;;;;;;;;;20.00;59.60;;;;;;4974872;28;1100;-71
2021/05/26 01:00:18;;;;;;;;;;;19.90;59.50;;;;;;4972500;28;1255;-71
2021/05/26 01:02:45;;;;;;;;;;;20.00;59.60;;;;;;4974766;28;1966;-71
2021/05/26 01:05:10;;;;;;;;;;;19.90;59.50;;;;;;4972292;28;1117;-71
2021/05/26 01:07:39;;;;;;;;;;;19.90;59.50;;;;;;4974920;28;1060;-70
2021/05/26 01:10:07;;;;;;;;;;;20.00;59.70;;;;;;4974375;28;1275;-71
2021/05/26 01:12:33;;;;;;;;;;;20.00;59.70;;;;;;4974781;28;1061;-71
2021/05/26 01:14:59;;;;;;;;;;;20.00;59.60;;;;;;4972715;28;1195;-71
2021/05/26 01:17:24;;;;;;;;;;;19.90;59.60;;;;;;4969780;28;1349;-71
2021/05/26 01:19:49;;;;;;;;;;;19.90;60.20;;;;;;4973622;28;1806;-71
2021/05/26 01:22:15;;;;;;;;;;;19.90;59.60;;;;;;4972994;28;1161;-72
2021/05/26 01:24:40;;;;;;;;;;;19.90;59.60;;;;;;4970540;28;1890;-71
2021/05/26 01:27:06;;;;;;;;;;;20.00;59.70;;;;;;4972821;28;1186;-72
2021/05/26 01:29:31;;;;;;;;;;;19.90;59.70;;;;;;4969914;28;1289;-72
2021/05/26 01:31:57;;;;;;;;;;;19.90;59.60;;;;;;4972442;28;1237;-70
2021/05/26 01:34:22;;;;;;;;;;;19.90;59.70;;;;;;4971646;28;1205;-73
2021/05/26 01:36:48;;;;;;;;;;;19.90;59.70;;;;;;4970719;28;1230;-72
2021/05/26 01:39:15;;;;;;;;;;;19.90;59.70;;;;;;4970191;28;1379;-72
2021/05/26 01:41:40;;;;;;;;;;;19.90;59.70;;;;;;4971146;28;1197;-71
2021/05/26 01:44:06;;;;;;;;;;;19.90;59.70;;;;;;4972142;28;1969;-72
2021/05/26 01:46:31;;;;;;;;;;;19.90;59.70;;;;;;4971387;28;1145;-72
2021/05/26 01:48:57;;;;;;;;;;;19.90;59.70;;;;;;4994662;28;1338;-71
2021/05/26 01:51:22;;;;;;;;;;;19.90;59.70;;;;;;4971249;28;1034;-72
2021/05/26 01:53:49;;;;;;;;;;;19.90;59.70;;;;;;4972845;28;1256;-72
2021/05/26 01:56:19;;;;;;;;;;;19.90;59.70;;;;;;4972885;28;1284;-73
2021/05/26 01:58:45;;;;;;;;;;;19.90;59.70;;;;;;4972762;28;1129;-72
2021/05/26 02:01:11;;;;;;;;;;;19.90;59.70;;;;;;4972219;28;1374;-72
2021/05/26 02:03:40;;;;;;;;;;;19.90;59.80;;;;;;4973680;28;1915;-72
2021/05/26 02:06:06;;;;;;;;;;;19.90;59.70;;;;;;4973148;28;1097;-73
2021/05/26 02:08:32;;;;;;;;;;;19.90;59.80;;;;;;4972834;28;1081;-73
2021/05/26 02:13:41;;;;;;;;;;;19.90;59.80;;;;;;4973763;28;1096;-73
2021/05/26 02:16:07;;;;;;;;;;;19.90;59.80;;;;;;4972704;28;1167;-73
2021/05/26 02:18:32;;;;;;;;;;;19.90;59.80;;;;;;4968176;28;1176;-73
2021/05/26 02:20:58;;;;;;;;;;;19.90;59.80;;;;;;4973467;28;1305;-73
2021/05/26 02:23:23;;;;;;;;;;;19.90;59.80;;;;;;4973500;28;1980;-73
2021/05/26 02:25:48;;;;;;;;;;;19.90;59.80;;;;;;4972968;28;1117;-71
2021/05/26 02:28:14;;;;;;;;;;;19.90;59.80;;;;;;4973481;28;1084;-71
2021/05/26 02:30:39;;;;;;;;;;;19.90;59.80;;;;;;4973051;28;1258;-71
2021/05/26 02:33:05;;;;;;;;;;;19.90;59.80;;;;;;4973201;28;1057;-71
2021/05/26 02:35:31;;;;;;;;;;;19.80;59.80;;;;;;4973075;28;1132;-71
2021/05/26 02:37:56;;;;;;;;;;;19.90;59.80;;;;;;4973653;28;1081;-71
2021/05/26 02:40:21;;;;;;;;;;;19.90;59.90;;;;;;4973161;28;1386;-71
2021/05/26 02:42:47;;;;;;;;;;;19.90;59.90;;;;;;4973341;28;1914;-71
2021/05/26 02:45:13;;;;;;;;;;;19.90;59.90;;;;;;4972261;28;1111;-70
2021/05/26 02:47:38;;;;;;;;;;;19.90;59.90;;;;;;4973443;28;1124;-70
2021/05/26 02:50:04;;;;;;;;;;;19.90;59.90;;;;;;4973504;28;1339;-70
2021/05/26 02:52:29;;;;;;;;;;;19.90;59.90;;;;;;4972928;28;1049;-69
2021/05/26 02:54:54;;;;;;;;;;;19.90;59.90;;;;;;4972826;28;1159;-70
2021/05/26 02:57:20;;;;;;;;;;;19.90;59.90;;;;;;4972058;28;1082;-70
2021/05/26 02:59:46;;;;;;;;;;;19.90;59.90;;;;;;4973474;28;1342;-70
2021/05/26 03:02:11;;;;;;;;;;;19.80;59.90;;;;;;4975749;28;1199;-70
2021/05/26 03:04:37;;;;;;;;;;;19.90;59.90;;;;;;4976651;28;1966;-69
2021/05/26 03:07:02;;;;;;;;;;;19.90;59.90;;;;;;4977305;28;1127;-70
2021/05/26 03:09:28;;;;;;;;;;;19.90;59.90;;;;;;4975827;28;1291;-70
2021/05/26 03:11:53;;;;;;;;;;;19.90;59.90;;;;;;4976739;28;1061;-71
2021/05/26 03:14:19;;;;;;;;;;;19.80;59.90;;;;;;4975971;28;1152;-70
2021/05/26 03:16:44;;;;;;;;;;;19.80;59.90;;;;;;4974435;28;1069;-71
2021/05/26 03:19:09;;;;;;;;;;;19.90;59.90;;;;;;4975005;28;1366;-71
2021/05/26 03:21:35;;;;;;;;;;;19.80;59.90;;;;;;4976452;28;1073;-71
2021/05/26 03:24:01;;;;;;;;;;;19.80;59.90;;;;;;4976529;28;1964;-71
2021/05/26 03:26:26;;;;;;;;;;;19.80;59.90;;;;;;4976101;28;1085;-71
2021/05/26 03:28:52;;;;;;;;;;;19.90;60.00;;;;;;4975239;28;1141;-71
2021/05/26 03:31:17;;;;;;;;;;;19.80;60.00;;;;;;4975133;28;1398;-71
2021/05/26 03:33:42;;;;;;;;;;;19.80;59.90;;;;;;4974998;28;1085;-71
2021/05/26 03:36:08;;;;;;;;;;;19.80;60.00;;;;;;4974536;28;1030;-71
2021/05/26 03:38:34;;;;;;;;;;;19.80;59.90;;;;;;4976142;28;1053;-72
2021/05/26 03:40:59;;;;;;;;;;;19.90;59.70;;;;;;4976435;28;1297;-72
2021/05/26 03:43:24;;;;;;;;;;;19.90;59.70;;;;;;4975961;28;1970;-71
2021/05/26 03:45:50;;;;;;;;;;;19.90;59.70;;;;;;4976180;28;1049;-71
2021/05/26 03:48:15;;;;;;;;;;;20.00;59.70;;;;;;4976060;28;1061;-71
2021/05/26 03:50:41;;;;;;;;;;;20.00;59.60;;;;;;4976221;28;1576;-71
2021/05/26 03:53:07;;;;;;;;;;;20.10;59.50;;;;;;4975020;28;1125;-71
2021/05/26 03:55:33;;;;;;;;;;;20.10;59.40;;;;;;4975517;28;1093;-71
2021/05/26 03:57:58;;;;;;;;;;;20.20;59.20;;;;;;4974767;28;1101;-71
2021/05/26 04:00:24;;;;;;;;;;;20.30;59.10;;;;;;4975845;28;1223;-69
2021/05/26 04:02:49;;;;;;;;;;;20.40;59.00;;;;;;4975006;28;1898;-70
2021/05/26 04:05:14;;;;;;;;;;;20.40;58.80;;;;;;4975420;28;1041;-70
2021/05/26 04:07:40;;;;;;;;;;;20.50;58.70;;;;;;4975643;28;1072;-70
2021/05/26 04:10:06;;;;;;;;;;;20.60;58.50;;;;;;4974654;28;1296;-71
2021/05/26 04:12:31;;;;;;;;;;;20.60;58.40;;;;;;4975232;28;1111;-71
2021/05/26 04:14:57;;;;;;;;;;;20.60;58.20;;;;;;4974984;28;1175;-72
2021/05/26 04:17:22;;;;;;;;;;;20.70;58.10;;;;;;4970294;28;1195;-72
2021/05/26 04:19:47;;;;;;;;;;;20.70;58.00;;;;;;4975440;28;1271;-71
2021/05/26 04:22:13;;;;;;;;;;;20.80;58.00;;;;;;4975694;28;1175;-72
2021/05/26 04:24:38;;;;;;;;;;;20.80;57.90;;;;;;4973879;28;1996;-72
2021/05/26 04:27:04;;;;;;;;;;;20.80;57.70;;;;;;4975185;28;1080;-71
2021/05/26 04:29:29;;;;;;;;;;;20.90;57.80;;;;;;4974817;28;1330;-72
2021/05/26 04:31:58;;;;;;;;;;;20.90;57.70;;;;;;4974518;28;1184;-72
2021/05/26 04:34:23;;;;;;;;;;;21.00;57.70;;;;;;4973900;28;1070;-70
2021/05/26 04:36:49;;;;;;;;;;;21.00;57.60;;;;;;4973706;28;1113;-70
2021/05/26 04:39:14;;;;;;;;;;;21.00;57.50;;;;;;4975289;28;1289;-70
2021/05/26 04:41:40;;;;;;;;;;;21.10;57.50;;;;;;4975258;28;1081;-71
2021/05/26 04:44:07;;;;;;;;;;;21.10;57.40;;;;;;4975226;28;1902;-72
2021/05/26 04:46:33;;;;;;;;;;;21.10;57.40;;;;;;4974285;28;1139;-73
2021/05/26 04:48:59;;;;;;;;;;;21.10;57.30;;;;;;4975012;28;1204;-72
2021/05/26 04:51:24;;;;;;;;;;;21.20;57.30;;;;;;4975233;28;1025;-72
2021/05/26 04:53:50;;;;;;;;;;;21.10;57.20;;;;;;4975386;28;1092;-70
2021/05/26 04:56:15;;;;;;;;;;;21.20;57.30;;;;;;4974214;28;1053;-70
2021/05/26 04:58:44;;;;;;;;;;;21.20;57.20;;;;;;4973698;28;1108;-70
2021/05/26 05:01:09;;;;;;;;;;;21.20;57.20;;;;;;4974663;28;1216;-70
2021/05/26 05:03:35;;;;;;;;;;;21.20;57.20;;;;;;4975220;28;1899;-70
2021/05/26 05:06:01;;;;;;;;;;;21.20;57.10;;;;;;4974086;28;1156;-70
2021/05/26 05:08:26;;;;;;;;;;;21.20;57.10;;;;;;4974983;28;1108;-71
2021/05/26 05:10:55;;;;;;;;;;;21.20;57.10;;;;;;4974628;28;1304;-71
2021/05/26 05:13:21;;;;;;;;;;;21.20;57.10;;;;;;4974993;28;1144;-71
2021/05/26 05:15:46;;;;;;;;;;;21.30;57.10;;;;;;4974723;28;1273;-72
2021/05/26 05:18:12;;;;;;;;;;;21.30;57.10;;;;;;4969665;28;1088;-71
2021/05/26 05:20:37;;;;;;;;;;;21.30;57.10;;;;;;4974424;28;1260;-72
2021/05/26 05:23:03;;;;;;;;;;;21.30;57.00;;;;;;4973449;28;1899;-72
2021/05/26 05:25:28;;;;;;;;;;;21.30;57.00;;;;;;4973764;28;1053;-72
2021/05/26 05:27:54;;;;;;;;;;;21.30;57.00;;;;;;4974691;28;1072;-72
2021/05/26 05:30:19;;;;;;;;;;;21.30;57.00;;;;;;4974163;28;1296;-72
2021/05/26 05:32:45;;;;;;;;;;;21.30;57.00;;;;;;4974331;28;1033;-72
2021/05/26 05:35:10;;;;;;;;;;;21.30;57.00;;;;;;4972231;28;1174;-72
2021/05/26 05:37:36;;;;;;;;;;;21.30;57.00;;;;;;4974383;28;1089;-71
2021/05/26 05:40:01;;;;;;;;;;;21.30;57.10;;;;;;4973899;28;1291;-72
2021/05/26 05:42:30;;;;;;;;;;;21.30;57.10;;;;;;4974610;28;1181;-72
2021/05/26 05:44:55;;;;;;;;;;;21.30;57.10;;;;;;4972348;28;1973;-71
2021/05/26 05:47:21;;;;;;;;;;;21.30;57.10;;;;;;4973950;28;1136;-72
2021/05/26 05:49:46;;;;;;;;;;;21.30;57.20;;;;;;4973156;28;1363;-73
2021/05/26 05:52:12;;;;;;;;;;;21.30;57.20;;;;;;4973971;28;1081;-72
2021/05/26 05:54:37;;;;;;;;;;;21.30;57.30;;;;;;4973350;28;1169;-72
2021/05/26 05:57:03;;;;;;;;;;;21.20;57.20;;;;;;4973790;28;1056;-70
2021/05/26 05:59:29;;;;;;;;;;;21.20;57.30;;;;;;4972758;28;1350;-73
2021/05/26 06:01:54;;;;;;;;;;;21.20;57.30;;;;;;4974197;28;1264;-73
2021/05/26 06:04:20;;;;;;;;;;;21.20;57.30;;;;;;4973878;28;1906;-72
2021/05/26 06:06:45;;;;;;;;;;;21.20;57.40;;;;;;4973336;28;1081;-72
2021/05/26 06:09:11;;;;;;;;;;;21.10;57.40;;;;;;4973582;28;1335;-72
2021/05/26 06:11:36;;;;;;;;;;;21.20;57.50;;;;;;4972207;28;1115;-73
2021/05/26 06:14:05;;;;;;;;;;;21.20;57.50;;;;;;4974092;28;1168;-73
2021/05/26 06:16:34;;;;;;;;;;;21.20;57.60;;;;;;4957134;28;1912;-71
2021/05/26 06:19:02;;;;;;;;;;;21.10;57.60;;;;;;4959972;28;1722;-72
2021/05/26 06:21:28;;;;;;;;;;;21.10;57.70;;;;;;4968357;28;1089;-70
2021/05/26 06:23:53;;;;;;;;;;;21.10;57.70;;;;;;4972017;28;2014;-70
2021/05/26 06:26:19;;;;;;;;;;;21.10;57.70;;;;;;4966853;28;1168;-71
2021/05/26 06:28:44;;;;;;;;;;;21.10;57.70;;;;;;4964396;28;1140;-70
2021/05/26 06:31:09;;;;;;;;;;;21.10;57.80;;;;;;4972352;28;1279;-71
2021/05/26 06:33:35;;;;;;;;;;;21.10;57.80;;;;;;4971946;28;1108;-71
2021/05/26 06:36:00;;;;;;;;;;;21.10;57.80;;;;;;4971889;28;1123;-69
2021/05/26 06:38:26;;;;;;;;;;;21.00;57.80;;;;;;4972052;28;1065;-70
2021/05/26 06:40:51;;;;;;;;;;;21.00;58.40;;;;;;4971926;28;1224;-71
2021/05/26 06:43:16;;;;;;;;;;;21.10;57.90;;;;;;4972520;28;1980;-71
2021/05/26 06:45:42;;;;;;;;;;;21.00;57.90;;;;;;4970432;28;1058;-71
2021/05/26 06:48:08;;;;;;;;;;;21.00;57.90;;;;;;4971558;28;1065;-71
2021/05/26 06:50:33;;;;;;;;;;;21.00;57.90;;;;;;4972300;28;1307;-70
2021/05/26 06:52:58;;;;;;;;;;;21.00;58.00;;;;;;4972210;28;1132;-73
2021/05/26 06:55:24;;;;;;;;;;;21.00;58.00;;;;;;4972846;28;1120;-72
2021/05/26 06:57:49;;;;;;;;;;;21.00;58.00;;;;;;4962509;28;2258;-72
2021/05/26 07:00:15;;;;;;;;;;;20.90;58.00;;;;;;4963801;28;1410;-72
2021/05/26 07:02:40;;;;;;;;;;;20.90;58.00;;;;;;4973887;28;1674;-73
2021/05/26 07:05:06;;;;;;;;;;;20.90;58.00;;;;;;4972462;28;1890;-70
2021/05/26 07:07:31;;;;;;;;;;;20.90;58.10;;;;;;4963610;28;1921;-73
2021/05/26 07:09:57;;;;;;;;;;;20.90;58.10;;;;;;4965185;28;1856;-71
2021/05/26 07:12:22;;;;;;;;;;;20.90;58.10;;;;;;4964717;28;1151;-72
2021/05/26 07:14:49;;;;;;;;;;;20.90;58.20;;;;;;4972093;28;1118;-72
2021/05/26 07:17:14;;;;;;;;;;;20.90;58.20;;;;;;4966188;28;1159;-71
2021/05/26 07:19:40;;;;;;;;;;;20.90;58.20;;;;;;4961518;28;1299;-71
2021/05/26 07:22:05;;;;;;;;;;;20.90;58.30;;;;;;4968582;28;1101;-71
2021/05/26 07:24:31;;;;;;;;;;;20.90;58.30;;;;;;4972453;28;1954;-71
2021/05/26 07:26:56;;;;;;;;;;;20.90;58.30;;;;;;4972601;28;1096;-71
2021/05/26 07:29:22;;;;;;;;;;;20.80;58.30;;;;;;4971619;28;1276;-71
2021/05/26 07:31:47;;;;;;;;;;;20.80;58.30;;;;;;4964923;28;1021;-71
2021/05/26 07:34:12;;;;;;;;;;;20.80;58.40;;;;;;4971684;28;1081;-71
2021/05/26 07:36:38;;;;;;;;;;;20.80;58.40;;;;;;4972024;28;1100;-71
2021/05/26 07:39:04;;;;;;;;;;;20.80;58.50;;;;;;4971452;28;1213;-71
2021/05/26 07:41:29;;;;;;;;;;;20.80;58.50;;;;;;4971768;28;1145;-71
2021/05/26 07:43:55;;;;;;;;;;;20.80;58.50;;;;;;4972887;28;1964;-71
2021/05/26 07:46:20;;;;;;;;;;;20.80;58.50;;;;;;4973160;28;1175;-71
2021/05/26 07:48:48;;;;;;;;;;;20.70;58.50;;;;;;4976437;28;1136;-71
2021/05/26 07:51:16;;;;;;;;;;;20.70;58.50;;;;;;4976274;28;1167;-71
2021/05/26 07:53:41;;;;;;;;;;;20.70;58.60;;;;;;4975969;28;1120;-71
2021/05/26 07:56:07;;;;;;;;;;;20.70;58.60;;;;;;4975268;28;1097;-72
2021/05/26 07:58:33;;;;;;;;;;;20.70;58.60;;;;;;4974987;28;1121;-72
2021/05/26 08:00:58;;;;;;;;;;;20.70;58.70;;;;;;4976210;28;1197;-69
2021/05/26 08:03:24;;;;;;;;;;;20.70;58.70;;;;;;4976125;28;1970;-70
2021/05/26 08:05:49;;;;;;;;;;;20.70;58.70;;;;;;4975019;28;1065;-70
2021/05/26 08:08:15;;;;;;;;;;;20.70;58.70;;;;;;4975799;28;1116;-71
2021/05/26 08:10:40;;;;;;;;;;;20.70;58.80;;;;;;4975989;28;1273;-71
2021/05/26 08:13:06;;;;;;;;;;;20.60;58.70;;;;;;4974795;28;1041;-70
2021/05/26 08:15:31;;;;;;;;;;;20.70;58.80;;;;;;4975103;28;1202;-72
2021/05/26 08:17:57;;;;;;;;;;;20.60;58.80;;;;;;4970307;28;1262;-72
2021/05/26 08:20:22;;;;;;;;;;;20.60;58.80;;;;;;4975550;28;1272;-72
2021/05/26 08:22:49;;;;;;;;;;;20.60;58.90;;;;;;4975857;28;1069;-72
2021/05/26 08:25:14;;;;;;;;;;;20.60;58.90;;;;;;4973544;28;1899;-72
2021/05/26 08:27:40;;;;;;;;;;;20.60;58.90;;;;;;4974711;28;1097;-72
2021/05/26 08:30:06;;;;;;;;;;;20.60;58.90;;;;;;4975267;28;1281;-72
2021/05/26 08:32:31;;;;;;;;;;;20.60;58.90;;;;;;4974290;28;1152;-72
2021/05/26 08:34:57;;;;;;;;;;;20.60;58.90;;;;;;4973225;28;1145;-71
2021/05/26 08:37:22;;;;;;;;;;;20.60;58.90;;;;;;4975274;28;1136;-71
2021/05/26 08:39:48;;;;;;;;;;;20.60;59.00;;;;;;4973958;28;1295;-72
2021/05/26 08:42:15;;;;;;;;;;;20.50;58.90;;;;;;4975995;28;1777;-70
2021/05/26 08:44:40;;;;;;;;;;;20.60;59.00;;;;;;4974917;28;1918;-70
2021/05/26 08:47:05;;;;;;;;;;;20.50;59.00;;;;;;4975595;28;1046;-70
2021/05/26 08:49:31;;;;;;;;;;;20.50;59.10;;;;;;4973761;28;1310;-69
2021/05/26 08:52:00;;;;;;;;;;;20.50;59.10;;;;;;4974955;28;1098;-70
2021/05/26 08:54:25;;;;;;;;;;;20.50;59.10;;;;;;4973951;28;1074;-72
2021/05/26 08:56:51;;;;;;;;;;;20.50;59.10;;;;;;4972691;28;1078;-71
2021/05/26 08:59:16;;;;;;;;;;;20.50;59.10;;;;;;4972890;28;1291;-71
2021/05/26 09:01:46;;;;;;;;;;;20.50;59.20;;;;;;4975170;28;1048;-71
2021/05/26 09:04:24;;;;;;;;;;;20.50;59.20;;;;;;4975209;28;1965;-71
2021/05/26 09:07:03;;;;;;;;;;;20.50;59.20;;;;;;4975405;28;1053;-71
2021/05/26 09:09:48;;;;;;;;;;;20.50;59.20;;;;;;4973540;28;1296;-72
2021/05/26 09:12:14;;;;;;;;;;;20.50;59.20;;;;;;4975035;28;1108;-71
2021/05/26 09:14:39;;;;;;;;;;;20.40;59.20;;;;;;4972783;28;1140;-72
2021/05/26 09:17:11;;;;;;;;;;;20.40;59.20;;;;;;4984801;28;1866;-71
2021/05/26 09:19:37;;;;;;;;;;;20.40;59.20;;;;;;4963155;28;1183;-72
2021/05/26 09:22:13;;;;;;;;;;;20.40;59.80;;;;;;4971927;28;1073;-72
2021/05/26 09:24:38;;;;;;;;;;;20.40;59.20;;;;;;4977177;28;1962;-72
2021/05/26 09:27:05;;;;;;;;;;;20.40;59.20;;;;;;4977894;28;1155;-71
2021/05/26 09:29:36;;;;;;;;;;;20.40;59.30;;;;;;4972960;28;1286;-71
2021/05/26 09:32:14;;;;;;;;;;;20.40;59.30;;;;;;4974622;28;1092;-71
2021/05/26 09:34:41;;;;;;;;;;;20.40;59.30;;;;;;4973301;28;1094;-71
2021/05/26 09:37:06;;;;;;;;;;;20.40;59.30;;;;;;4973807;28;1116;-71
2021/05/26 09:39:44;;;;;;;;;;;20.40;59.40;;;;;;4974243;28;1240;-71
2021/05/26 09:42:21;;;;;;;;;;;20.40;59.40;;;;;;4974159;28;1108;-71
2021/05/26 09:45:06;;;;;;;;;;;20.40;59.40;;;;;;4972693;28;1963;-71
2021/05/26 09:47:34;;;;;;;;;;;20.40;59.40;;;;;;4971219;28;1016;-73
2021/05/26 09:50:19;;;;;;;;;;;20.40;59.40;;;;;;4965362;28;1867;-73
2021/05/26 09:52:50;;;;;;;;;;;20.40;59.50;;;;;;4973860;28;1083;-73
2021/05/26 09:55:21;;;;;;;;;;;20.40;59.50;;;;;;4963963;28;1265;-73
2021/05/26 09:57:50;;;;;;;;;;;20.30;59.50;;;;;;4972688;28;1062;-73
2021/05/26 10:00:16;;;;;;;;;;;20.30;59.50;;;;;;4973829;28;1227;-73
2021/05/26 10:02:42;;;;;;;;;;;20.30;59.50;;;;;;4973447;28;1081;-72
2021/05/26 10:05:07;;;;;;;;;;;20.40;59.50;;;;;;4971556;28;1959;-72
2021/05/26 10:07:33;;;;;;;;;;;20.40;59.60;;;;;;4973146;28;1098;-73
2021/05/26 10:09:58;;;;;;;;;;;20.30;59.60;;;;;;4972347;28;1286;-73
2021/05/26 10:12:24;;;;;;;;;;;20.30;59.60;;;;;;4973802;28;1100;-73
2021/05/26 10:14:49;;;;;;;;;;;20.30;59.60;;;;;;4971674;28;1247;-72
2021/05/26 10:17:19;;;;;;;;;;;20.30;59.60;;;;;;4982756;28;1344;-71
2021/05/26 10:19:45;;;;;;;;;;;20.30;59.60;;;;;;4971986;28;1285;-72
2021/05/26 10:22:10;;;;;;;;;;;20.30;59.70;;;;;;4973992;28;1081;-72
2021/05/26 10:24:36;;;;;;;;;;;20.30;59.70;;;;;;4972191;28;1969;-72
2021/05/26 10:27:02;;;;;;;;;;;20.30;59.70;;;;;;4972178;28;1069;-73
2021/05/26 10:29:31;;;;;;;;;;;20.30;59.70;;;;;;4972194;28;1343;-72
2021/05/26 10:31:57;;;;;;;;;;;20.30;59.70;;;;;;4973485;28;1041;-73
2021/05/26 10:34:41;;;;;;;;;;;20.30;59.70;;;;;;4972009;28;1537;-73
2021/05/26 10:37:06;;;;;;;;;;;20.20;59.70;;;;;;4973260;28;1069;-73
2021/05/26 10:39:31;;;;;;;;;;;20.20;59.70;;;;;;4973328;28;1370;-72
2021/05/26 10:41:57;;;;;;;;;;;20.20;59.70;;;;;;4972024;28;1484;-72
2021/05/26 10:44:42;;;;;;;;;;;20.20;59.80;;;;;;4972031;28;1906;-73
2021/05/26 10:47:27;;;;;;;;;;;20.20;59.80;;;;;;4973226;28;1108;-73
2021/05/26 10:49:52;;;;;;;;;;;20.20;59.80;;;;;;4972920;28;1284;-72
2021/05/26 10:52:18;;;;;;;;;;;20.20;59.80;;;;;;4973012;28;1136;-73
2021/05/26 10:54:43;;;;;;;;;;;20.20;59.80;;;;;;4972502;28;1065;-72
2021/05/26 10:57:09;;;;;;;;;;;20.20;59.80;;;;;;4973287;28;1081;-72
2021/05/26 10:59:34;;;;;;;;;;;20.20;60.50;;;;;;4973175;28;1303;-72
2021/05/26 11:02:03;;;;;;;;;;;20.20;59.80;;;;;;4973064;28;1072;-72
2021/05/26 11:04:28;;;;;;;;;;;20.20;59.80;;;;;;4971831;28;1891;-73
2021/05/26 11:07:13;;;;;;;;;;;20.20;60.00;;;;;;4972704;28;1139;-73
2021/05/26 11:10:02;;;;;;;;;;;20.20;60.00;;;;;;4973080;28;1802;-72
2021/05/26 11:12:28;;;;;;;;;;;20.20;60.10;;;;;;4973299;28;1155;-72
2021/05/26 11:14:56;;;;;;;;;;;20.20;60.10;;;;;;4972264;28;1222;-72
2021/05/26 11:17:24;;;;;;;;;;;20.20;60.10;;;;;;4971593;28;1113;-72
2021/05/26 11:19:50;;;;;;;;;;;20.20;60.10;;;;;;4970819;28;1298;-73
2021/05/26 11:22:16;;;;;;;;;;;20.20;60.10;;;;;;4972887;28;1141;-73
2021/05/26 11:24:42;;;;;;;;;;;20.20;60.10;;;;;;4975431;28;1998;-73
2021/05/26 11:27:14;;;;;;;;;;;20.20;60.10;;;;;;4975691;28;1193;-73
2021/05/26 11:29:39;;;;;;;;;;;20.10;60.00;;;;;;4976415;28;1275;-72
2021/05/26 11:32:05;;;;;;;;;;;20.10;60.00;;;;;;4976374;28;1064;-71
2021/05/26 11:34:31;;;;;;;;;;;20.20;60.10;;;;;;4974813;28;1066;-73
2021/05/26 11:36:56;;;;;;;;;;;20.20;60.10;;;;;;4975932;28;1148;-73
2021/05/26 11:39:27;;;;;;;;;;;20.10;60.10;;;;;;4976397;28;1220;-74
2021/05/26 11:42:12;;;;;;;;;;;20.10;60.10;;;;;;4975223;28;1157;-74
2021/05/26 11:44:38;;;;;;;;;;;20.10;60.00;;;;;;4968517;28;1914;-72
2021/05/26 11:47:04;;;;;;;;;;;20.10;60.10;;;;;;4974986;28;1089;-72
2021/05/26 11:49:33;;;;;;;;;;;20.10;60.10;;;;;;4975819;28;1288;-72
2021/05/26 11:52:05;;;;;;;;;;;20.10;60.10;;;;;;4976413;28;1128;-72
2021/05/26 11:54:31;;;;;;;;;;;20.10;60.10;;;;;;4975698;28;1089;-73
2021/05/26 11:57:04;;;;;;;;;;;20.10;60.10;;;;;;4976166;28;1069;-72
2021/05/26 11:59:29;;;;;;;;;;;20.10;60.10;;;;;;4974619;28;1394;-72
2021/05/26 12:01:55;;;;;;;;;;;20.10;60.10;;;;;;4975756;28;1192;-73
2021/05/26 12:04:21;;;;;;;;;;;20.10;60.10;;;;;;4975387;28;1890;-73
2021/05/26 12:06:47;;;;;;;;;;;20.10;60.10;;;;;;4975450;28;1096;-72
2021/05/26 12:09:28;;;;;;;;;;;20.10;60.10;;;;;;4975821;28;1371;-73
2021/05/26 12:11:54;;;;;;;;;;;20.10;60.10;;;;;;4975328;28;1053;-72
2021/05/26 12:14:25;;;;;;;;;;;20.10;60.40;;;;;;4975972;28;1088;-73
2021/05/26 12:16:51;;;;;;;;;;;20.10;60.50;;;;;;4971084;28;1120;-72
2021/05/26 12:19:16;;;;;;;;;;;20.10;60.50;;;;;;4972746;28;1295;-72
2021/05/26 12:21:46;;;;;;;;;;;20.10;60.50;;;;;;4965037;28;1749;-71
2021/05/26 12:24:14;;;;;;;;;;;20.10;60.50;;;;;;4969897;28;1946;-71
2021/05/26 12:26:44;;;;;;;;;;;20.10;60.50;;;;;;4973823;28;1057;-72
2021/05/26 12:29:10;;;;;;;;;;;20.10;60.50;;;;;;4974233;28;1937;-70
2021/05/26 12:31:36;;;;;;;;;;;20.10;60.50;;;;;;4974371;28;1108;-71
2021/05/26 12:34:01;;;;;;;;;;;20.10;60.50;;;;;;4973781;28;1227;-72
2021/05/26 12:36:31;;;;;;;;;;;20.10;60.50;;;;;;4972276;28;1090;-72
2021/05/26 12:38:57;;;;;;;;;;;20.10;60.50;;;;;;4973453;28;1292;-72
2021/05/26 12:41:24;;;;;;;;;;;20.10;60.50;;;;;;4973263;28;1073;-72
2021/05/26 12:43:53;;;;;;;;;;;20.10;60.50;;;;;;4971688;28;1899;-72
2021/05/26 12:46:34;;;;;;;;;;;20.10;60.40;;;;;;4969773;28;1138;-72
2021/05/26 12:49:00;;;;;;;;;;;20.10;60.50;;;;;;4970666;28;1290;-72
2021/05/26 12:51:28;;;;;;;;;;;20.10;61.20;;;;;;4972978;28;1086;-72
2021/05/26 12:53:56;;;;;;;;;;;20.10;60.50;;;;;;4969969;28;1933;-72
2021/05/26 12:56:22;;;;;;;;;;;20.10;60.50;;;;;;4967992;28;1945;-73
2021/05/26 12:58:48;;;;;;;;;;;20.00;60.40;;;;;;4973269;28;1607;-72
2021/05/26 13:01:13;;;;;;;;;;;20.10;60.50;;;;;;4965120;28;1553;-72
2021/05/26 13:03:38;;;;;;;;;;;20.00;60.40;;;;;;4962488;28;1894;-72
2021/05/26 13:06:13;;;;;;;;;;;20.00;60.40;;;;;;4973403;28;1353;-72
2021/05/26 13:08:39;;;;;;;;;;;20.00;60.40;;;;;;4967631;28;1418;-72
2021/05/26 13:11:07;;;;;;;;;;;20.00;60.40;;;;;;4958843;28;1657;-72
2021/05/26 13:13:33;;;;;;;;;;;20.10;60.50;;;;;;4970941;28;1578;-71
2021/05/26 13:16:07;;;;;;;;;;;20.10;60.50;;;;;;4973923;28;1385;-72
2021/05/26 13:18:32;;;;;;;;;;;20.10;60.50;;;;;;4970586;28;1411;-73
2021/05/26 13:21:01;;;;;;;;;;;20.00;60.40;;;;;;4971949;28;1614;-72
2021/05/26 13:23:26;;;;;;;;;;;20.00;60.60;;;;;;4972597;28;1902;-72
2021/05/26 13:25:54;;;;;;;;;;;20.00;60.60;;;;;;4969537;28;2256;-72
2021/05/26 13:28:20;;;;;;;;;;;20.10;60.70;;;;;;4988677;28;1473;-72
2021/05/26 13:30:46;;;;;;;;;;;20.00;60.60;;;;;;4968929;28;1289;-73
2021/05/26 13:33:11;;;;;;;;;;;20.00;60.60;;;;;;4963808;28;1527;-74
2021/05/26 13:35:37;;;;;;;;;;;20.00;60.60;;;;;;4946538;29;1158;-73
2021/05/26 13:38:03;;;;;;;;;;;20.10;61.40;;;;;;4966334;28;1802;-71
2021/05/26 13:40:28;;;;;;;;;;;20.00;60.60;;;;;;4969784;28;1361;-73
2021/05/26 13:42:54;;;;;;;;;;;20.00;60.60;;;;;;4985136;28;1108;-72
2021/05/26 13:45:20;;;;;;;;;;;20.00;60.60;;;;;;4971017;28;1973;-72
2021/05/26 13:47:45;;;;;;;;;;;20.00;60.60;;;;;;4972688;28;1072;-71
2021/05/26 13:50:15;;;;;;;;;;;20.00;60.60;;;;;;4971108;28;2093;-71
2021/05/26 13:52:41;;;;;;;;;;;20.00;60.60;;;;;;4967604;28;2213;-73
2021/05/26 13:55:07;;;;;;;;;;;20.00;60.60;;;;;;4970653;28;1073;-71
2021/05/26 13:57:32;;;;;;;;;;;20.00;60.60;;;;;;4977780;28;1096;-73
2021/05/26 13:59:57;;;;;;;;;;;20.00;60.60;;;;;;4980328;28;1340;-72
2021/05/26 14:02:23;;;;;;;;;;;20.00;60.60;;;;;;4972938;28;1063;-71
2021/05/26 14:04:49;;;;;;;;;;;20.00;60.60;;;;;;4972170;28;1961;-73
2021/05/26 14:07:14;;;;;;;;;;;20.00;60.60;;;;;;4972582;28;1136;-73
2021/05/26 14:09:39;;;;;;;;;;;20.00;60.60;;;;;;4972806;28;1284;-72
2021/05/26 14:12:05;;;;;;;;;;;20.00;60.60;;;;;;4972927;28;938;-72
2021/05/26 14:14:32;;;;;;;;;;;20.00;60.60;;;;;;4972629;28;1139;-72
2021/05/26 14:16:57;;;;;;;;;;;20.00;60.70;;;;;;4968192;28;1093;-72
2021/05/26 14:19:23;;;;;;;;;;;20.00;60.70;;;;;;4971185;28;1210;-69
2021/05/26 14:21:48;;;;;;;;;;;20.00;60.80;;;;;;4972029;28;1203;-70
2021/05/26 14:24:14;;;;;;;;;;;20.00;60.80;;;;;;4972760;28;1957;-69
2021/05/26 14:26:39;;;;;;;;;;;19.90;60.70;;;;;;4966963;28;1763;-69
2021/05/26 14:29:05;;;;;;;;;;;19.90;60.70;;;;;;4979763;28;1435;-70
2021/05/26 14:31:30;;;;;;;;;;;20.00;60.80;;;;;;4969348;28;1943;-73